• Join FlightAware (Why Join?)
  • Login
  • US Flag 
04:43AM EDT


 

Airport Tracker/Info


-or-


 

Live Flight TrackerFlight Track Log ✈ N560HM ✈ 15-03-2014 ✈ KAGC - KTEB

Flight Track Log - Related Links

Times and Time Zones

All times are in EDT time to prevent confusion due to time zone crossing. See the N560HM flight status page for this flight to view local times or setup timezone preferences in your user account.

Time Position Orientation Groundspeed Altitude Reporting Facility
EDT Latitude Longitude Course Direction KTS MPH feet Rate Location/Type
07:04AM 40.3542 -79.9547 North 172 198 25,000  Level Cleveland Center
07:05AM 40.4042 -79.9522 North 246 283 3,700 -9,000 Descending Cleveland Center
07:06AM 40.4331 -79.8392 71° East 273 314 6,800 2,820 Climbing Cleveland Center
07:07AM 40.4547 -79.7289 75° East 301 346 9,500 2,820 Climbing Cleveland Center
07:08AM 40.4794 -79.6097 75° East 331 381 12,600 2,940 Climbing Cleveland Center
07:09AM 40.5036 -79.4847 76° East 350 403 15,600 2,640 Climbing Cleveland Center
07:10AM 40.5311 -79.3506 75° East 381 438 18,000 2,280 Climbing Cleveland Center
07:11AM 40.5594 -79.2133 75° East 394 453 20,300 2,340 Climbing Cleveland Center
07:12AM 40.5903 -79.0633 75° East 411 473 22,800 2,160 Climbing Cleveland Center
07:13AM 40.6253 -78.8889 75° East 423 487 24,700 1,020 Climbing Cleveland Center
07:14AM 40.6589 -78.7244 75° East 465 535 25,000 120 Climbing Cleveland Center
07:15AM 40.6919 -78.5533 76° East 483 556 25,000  Level Cleveland Center
07:16AM 40.7250 -78.3814 76° East 488 562 25,000  Level Cleveland Center
07:17AM 40.7836 -78.2353 62° Northeast 459 528 25,000  Level Cleveland Center
07:18AM 40.8581 -78.1050 53° Northeast 452 520 25,000  Level Cleveland Center
07:19AM 40.9283 -77.9269 62° Northeast 465 535 25,000  Level Cleveland Center
07:20AM 40.9450 -77.8233 78° East 460 529 25,000  Level New York Center
07:21AM 40.9719 -77.6503 78° East 466 536 25,000  Level New York Center
07:22AM 41.0008 -77.4717 78° East 482 555 25,000  Level New York Center
07:23AM 41.0219 -77.3197 80° East 482 555 25,000  Level New York Center
07:24AM 41.0533 -77.1272 78° East 482 555 25,000  Level New York Center
07:25AM 41.0811 -76.9564 78° East 482 555 25,000  Level New York Center
07:26AM 41.1086 -76.7856 78° East 482 555 25,000 -420 Level New York Center
07:27AM 41.1339 -76.6142 79° East 482 555 24,200 -840 Descending New York Center
07:28AM 41.1608 -76.4456 78° East 477 549 23,300 -960 Descending New York Center
07:29AM 41.1831 -76.2819 80° East 465 535 22,400 -900 Descending New York Center
07:30AM 41.2092 -76.1242 78° East 455 524 21,500 -900 Descending New York Center
07:31AM 41.2328 -75.9658 79° East 443 510 20,600 -900 Descending New York Center
07:32AM 41.2539 -75.8131 80° East 443 510 19,700 -960 Descending New York Center
07:33AM 41.2744 -75.6708 79° East 438 504 18,700 -1,920 Descending New York Center
07:34AM 41.2217 -75.5375 118° Southeast 403 464 15,900 -2,100 Descending New York Center
07:35AM 41.1753 -75.3936 113° Southeast 389 448 14,600 -1,740 Descending New York Center
07:36AM 41.1358 -75.2808 115° Southeast 356 410 12,400 -2,280 Descending New York Center
07:37AM 41.1022 -75.1767 113° Southeast 334 384 10,000 -2,460 Descending New York Center
07:38AM 41.0667 -75.0725 114° Southeast 326 375 7,600 -2,040 Descending New York Center
07:39AM 41.0250 -74.9569 116° Southeast 321 369 6,000 -840 Descending New York Center
07:40AM 40.9928 -74.8644 115° Southeast 310 357 6,000 -600 Level New York Center
07:41AM 40.9944 -74.7517 89° East 291 335 4,900 -1,020 Descending New York Center
07:42AM 41.0003 -74.6422 86° East 296 341 4,000 -840 Descending New York Center
07:43AM 41.0058 -74.5353 86° East 289 333 3,300 -540 Descending New York Center
07:44AM 41.0111 -74.4283 86° East 289 333 3,000 -120 Descending New York Center
07:45AM 41.0167 -74.3167 86° East 297 342 3,100 -180 Climbing New York TRACON
07:46AM 41.0167 -74.2167 90° East 290 334 2,700 -540 Descending New York TRACON
07:47AM 41.0333 -74.1333 75° East 269 310 2,100 -300 Descending New York TRACON
07:48AM 40.9833 -74.0667 135° Southeast 205 236 2,100 -60 Level New York TRACON
07:49AM 40.9500 -74.0500 159° South 170 196 2,000 -480 Descending New York TRACON
07:50AM 40.9167 -74.0500 180° South 127 146 1,300 -780 Descending New York TRACON
07:51AM 40.8833 -74.0500 180° South 117 135 600 5,340 Descending New York TRACON
07:53AM 40.7978 -73.9644 143° Southeast 138 159 19,000 7,620 Climbing New York Center